sensor_id;sensor_type;location;lat;lon;timestamp;temperature;humidity
19755;DHT22;10036;47.812;9.274;2023-02-12T00:01:40;-1.20;99.90
19755;DHT22;10036;47.812;9.274;2023-02-12T00:04:07;-1.30;99.90
19755;DHT22;10036;47.812;9.274;2023-02-12T00:06:34;-1.20;99.90
19755;DHT22;10036;47.812;9.274;2023-02-12T00:09:00;-1.30;99.90
19755;DHT22;10036;47.812;9.274;2023-02-12T00:11:29;-1.30;99.90
19755;DHT22;10036;47.812;9.274;2023-02-12T00:13:56;-1.20;99.90
19755;DHT22;10036;47.812;9.274;2023-02-12T00:16:25;-1.40;99.90
19755;DHT22;10036;47.812;9.274;2023-02-12T00:18:54;-1.50;99.90
19755;DHT22;10036;47.812;9.274;2023-02-12T00:21:22;-1.50;99.90
19755;DHT22;10036;47.812;9.274;2023-02-12T00:23:49;-1.50;99.90
19755;DHT22;10036;47.812;9.274;2023-02-12T00:26:18;-1.40;99.90
19755;DHT22;10036;47.812;9.274;2023-02-12T00:28:46;-1.40;99.90
19755;DHT22;10036;47.812;9.274;2023-02-12T00:31:15;-1.40;99.90
19755;DHT22;10036;47.812;9.274;2023-02-12T00:33:42;-1.50;99.90
19755;DHT22;10036;47.812;9.274;2023-02-12T00:36:13;-1.50;99.90
19755;DHT22;10036;47.812;9.274;2023-02-12T00:38:40;-1.50;99.90
19755;DHT22;10036;47.812;9.274;2023-02-12T00:41:07;-1.50;99.90
19755;DHT22;10036;47.812;9.274;2023-02-12T00:43:34;-1.60;99.90
19755;DHT22;10036;47.812;9.274;2023-02-12T00:46:02;-1.60;99.90
19755;DHT22;10036;47.812;9.274;2023-02-12T00:48:31;-1.70;99.90
19755;DHT22;10036;47.812;9.274;2023-02-12T00:50:58;-1.60;99.90
19755;DHT22;10036;47.812;9.274;2023-02-12T00:53:25;-1.50;99.90
19755;DHT22;10036;47.812;9.274;2023-02-12T00:55:52;-1.40;99.90
19755;DHT22;10036;47.812;9.274;2023-02-12T00:58:19;-1.40;99.90
19755;DHT22;10036;47.812;9.274;2023-02-12T01:00:45;-1.40;99.90
19755;DHT22;10036;47.812;9.274;2023-02-12T01:03:14;-1.30;99.90
19755;DHT22;10036;47.812;9.274;2023-02-12T01:05:41;-1.40;99.90
19755;DHT22;10036;47.812;9.274;2023-02-12T01:08:10;-1.50;99.90
19755;DHT22;10036;47.812;9.274;2023-02-12T01:10:37;-1.70;99.90
19755;DHT22;10036;47.812;9.274;2023-02-12T01:13:04;-1.70;99.90
19755;DHT22;10036;47.812;9.274;2023-02-12T01:15:31;-1.70;99.90
19755;DHT22;10036;47.812;9.274;2023-02-12T01:17:58;-1.80;99.90
19755;DHT22;10036;47.812;9.274;2023-02-12T01:20:26;-1.80;99.90
19755;DHT22;10036;47.812;9.274;2023-02-12T01:22:53;-1.80;99.90
19755;DHT22;10036;47.812;9.274;2023-02-12T01:25:20;-1.70;99.90
19755;DHT22;10036;47.812;9.274;2023-02-12T01:27:47;-1.80;99.90
19755;DHT22;10036;47.812;9.274;2023-02-12T01:30:14;-1.80;99.90
19755;DHT22;10036;47.812;9.274;2023-02-12T01:32:42;-1.80;99.90
19755;DHT22;10036;47.812;9.274;2023-02-12T01:35:09;-1.80;99.90
19755;DHT22;10036;47.812;9.274;2023-02-12T01:37:37;-1.80;99.90
19755;DHT22;10036;47.812;9.274;2023-02-12T01:40:05;-1.70;99.90
19755;DHT22;10036;47.812;9.274;2023-02-12T01:42:33;-1.70;99.90
19755;DHT22;10036;47.812;9.274;2023-02-12T01:45:42;-1.60;99.90
19755;DHT22;10036;47.812;9.274;2023-02-12T01:48:10;-1.60;99.90
19755;DHT22;10036;47.812;9.274;2023-02-12T01:50:37;-1.50;99.90
19755;DHT22;10036;47.812;9.274;2023-02-12T01:53:07;-1.50;99.90
19755;DHT22;10036;47.812;9.274;2023-02-12T01:55:34;-1.60;99.90
19755;DHT22;10036;47.812;9.274;2023-02-12T01:58:01;-1.60;99.90
19755;DHT22;10036;47.812;9.274;2023-02-12T02:00:29;-1.70;99.90
19755;DHT22;10036;47.812;9.274;2023-02-12T02:02:59;-1.60;99.90
19755;DHT22;10036;47.812;9.274;2023-02-12T02:05:30;-1.50;99.90
19755;DHT22;10036;47.812;9.274;2023-02-12T02:07:59;-1.50;99.90
19755;DHT22;10036;47.812;9.274;2023-02-12T02:10:28;-1.60;99.90
19755;DHT22;10036;47.812;9.274;2023-02-12T02:12:55;-1.60;99.90
19755;DHT22;10036;47.812;9.274;2023-02-12T02:15:39;-1.70;99.90
19755;DHT22;10036;47.812;9.274;2023-02-12T02:18:12;-1.70;99.90
19755;DHT22;10036;47.812;9.274;2023-02-12T02:21:07;-1.80;99.90
19755;DHT22;10036;47.812;9.274;2023-02-12T02:23:53;-1.80;99.90
19755;DHT22;10036;47.812;9.274;2023-02-12T02:26:36;-1.70;99.90
19755;DHT22;10036;47.812;9.274;2023-02-12T02:29:20;-1.70;99.90
19755;DHT22;10036;47.812;9.274;2023-02-12T02:31:57;-1.60;99.90
19755;DHT22;10036;47.812;9.274;2023-02-12T02:34:33;-1.60;99.90
19755;DHT22;10036;47.812;9.274;2023-02-12T02:37:09;-1.70;99.90
19755;DHT22;10036;47.812;9.274;2023-02-12T02:39:43;-1.70;99.90
19755;DHT22;10036;47.812;9.274;2023-02-12T02:42:16;-1.60;99.90
19755;DHT22;10036;47.812;9.274;2023-02-12T02:44:47;-1.70;99.90
19755;DHT22;10036;47.812;9.274;2023-02-12T02:47:20;-1.70;99.90
19755;DHT22;10036;47.812;9.274;2023-02-12T02:49:51;-1.80;99.90
19755;DHT22;10036;47.812;9.274;2023-02-12T02:52:23;-1.80;99.90
19755;DHT22;10036;47.812;9.274;2023-02-12T02:54:54;-1.80;99.90
19755;DHT22;10036;47.812;9.274;2023-02-12T02:57:27;-1.80;99.90
19755;DHT22;10036;47.812;9.274;2023-02-12T02:59:59;-1.70;99.90
19755;DHT22;10036;47.812;9.274;2023-02-12T03:02:32;-1.70;99.90
19755;DHT22;10036;47.812;9.274;2023-02-12T03:05:03;-1.70;99.90
19755;DHT22;10036;47.812;9.274;2023-02-12T03:07:33;-1.80;99.90
19755;DHT22;10036;47.812;9.274;2023-02-12T03:10:05;-1.80;99.90
19755;DHT22;10036;47.812;9.274;2023-02-12T03:12:37;-1.80;99.90
19755;DHT22;10036;47.812;9.274;2023-02-12T03:15:08;-1.80;99.90
19755;DHT22;10036;47.812;9.274;2023-02-12T03:17:40;-1.80;99.90
19755;DHT22;10036;47.812;9.274;2023-02-12T03:20:13;-1.80;99.90
19755;DHT22;10036;47.812;9.274;2023-02-12T03:22:45;-1.90;99.90
19755;DHT22;10036;47.812;9.274;2023-02-12T03:25:18;-1.80;99.90
19755;DHT22;10036;47.812;9.274;2023-02-12T03:27:50;-1.80;99.90
19755;DHT22;10036;47.812;9.274;2023-02-12T03:30:18;-1.80;99.90
19755;DHT22;10036;47.812;9.274;2023-02-12T03:32:53;-1.90;99.90
19755;DHT22;10036;47.812;9.274;2023-02-12T03:35:23;-1.90;99.90
19755;DHT22;10036;47.812;9.274;2023-02-12T03:37:55;-1.90;99.90
19755;DHT22;10036;47.812;9.274;2023-02-12T03:40:28;-1.90;99.90
19755;DHT22;10036;47.812;9.274;2023-02-12T03:43:00;-2.00;99.90
19755;DHT22;10036;47.812;9.274;2023-02-12T03:45:37;-1.90;99.90
19755;DHT22;10036;47.812;9.274;2023-02-12T03:48:10;-2.00;99.90
19755;DHT22;10036;47.812;9.274;2023-02-12T03:50:43;-2.00;99.90
19755;DHT22;10036;47.812;9.274;2023-02-12T03:53:12;-1.90;99.90
19755;DHT22;10036;47.812;9.274;2023-02-12T03:55:42;-1.90;99.90
19755;DHT22;10036;47.812;9.274;2023-02-12T03:58:14;-1.90;99.90
19755;DHT22;10036;47.812;9.274;2023-02-12T04:00:44;-1.90;99.90
19755;DHT22;10036;47.812;9.274;2023-02-12T04:03:12;-1.90;99.90
19755;DHT22;10036;47.812;9.274;2023-02-12T04:05:39;-1.90;99.90
19755;DHT22;10036;47.812;9.274;2023-02-12T04:08:08;-1.90;99.90
19755;DHT22;10036;47.812;9.274;2023-02-12T04:10:43;-2.00;99.90
19755;DHT22;10036;47.812;9.274;2023-02-12T04:13:18;-2.00;99.90
19755;DHT22;10036;47.812;9.274;2023-02-12T04:15:57;-2.00;99.90
19755;DHT22;10036;47.812;9.274;2023-02-12T04:18:34;-2.00;99.90
19755;DHT22;10036;47.812;9.274;2023-02-12T04:21:09;-2.00;99.90
19755;DHT22;10036;47.812;9.274;2023-02-12T04:23:48;-2.00;99.90
19755;DHT22;10036;47.812;9.274;2023-02-12T04:26:22;-2.00;99.90
19755;DHT22;10036;47.812;9.274;2023-02-12T04:29:01;-2.00;99.90
19755;DHT22;10036;47.812;9.274;2023-02-12T04:31:34;-2.00;99.90
19755;DHT22;10036;47.812;9.274;2023-02-12T04:34:12;-2.00;99.90
19755;DHT22;10036;47.812;9.274;2023-02-12T04:36:45;-2.00;99.90
19755;DHT22;10036;47.812;9.274;2023-02-12T04:39:18;-2.00;99.90
19755;DHT22;10036;47.812;9.274;2023-02-12T04:41:47;-2.00;99.90
19755;DHT22;10036;47.812;9.274;2023-02-12T04:44:16;-2.00;99.90
19755;DHT22;10036;47.812;9.274;2023-02-12T04:46:43;-2.00;99.90
19755;DHT22;10036;47.812;9.274;2023-02-12T04:49:14;-2.10;99.90
19755;DHT22;10036;47.812;9.274;2023-02-12T04:51:42;-2.10;99.90
19755;DHT22;10036;47.812;9.274;2023-02-12T04:54:09;-2.10;99.90
19755;DHT22;10036;47.812;9.274;2023-02-12T04:56:36;-2.00;99.90
19755;DHT22;10036;47.812;9.274;2023-02-12T04:59:03;-2.00;99.90
19755;DHT22;10036;47.812;9.274;2023-02-12T05:01:32;-2.00;99.90
19755;DHT22;10036;47.812;9.274;2023-02-12T05:03:58;-1.90;99.90
19755;DHT22;10036;47.812;9.274;2023-02-12T05:06:27;-1.90;99.90
19755;DHT22;10036;47.812;9.274;2023-02-12T05:08:55;-1.80;99.90
19755;DHT22;10036;47.812;9.274;2023-02-12T05:11:22;-1.90;99.90
19755;DHT22;10036;47.812;9.274;2023-02-12T05:13:49;-1.90;99.90
19755;DHT22;10036;47.812;9.274;2023-02-12T05:16:18;-1.90;99.90
19755;DHT22;10036;47.812;9.274;2023-02-12T05:18:45;-2.00;99.90
19755;DHT22;10036;47.812;9.274;2023-02-12T05:21:12;-2.00;99.90
19755;DHT22;10036;47.812;9.274;2023-02-12T05:23:41;-2.00;99.90
19755;DHT22;10036;47.812;9.274;2023-02-12T05:26:11;-2.00;99.90
19755;DHT22;10036;47.812;9.274;2023-02-12T05:28:38;-2.00;99.90
19755;DHT22;10036;47.812;9.274;2023-02-12T05:31:09;-2.00;99.90
19755;DHT22;10036;47.812;9.274;2023-02-12T05:33:36;-2.00;99.90
19755;DHT22;10036;47.812;9.274;2023-02-12T05:36:04;-1.80;99.90
19755;DHT22;10036;47.812;9.274;2023-02-12T05:38:31;-1.90;99.90
19755;DHT22;10036;47.812;9.274;2023-02-12T05:41:02;-1.90;99.90
19755;DHT22;10036;47.812;9.274;2023-02-12T05:43:29;-1.90;99.90
19755;DHT22;10036;47.812;9.274;2023-02-12T05:45:58;-1.90;99.90
19755;DHT22;10036;47.812;9.274;2023-02-12T05:48:25;-1.90;99.90
19755;DHT22;10036;47.812;9.274;2023-02-12T05:50:51;-1.90;99.90
19755;DHT22;10036;47.812;9.274;2023-02-12T05:53:18;-1.80;99.90
19755;DHT22;10036;47.812;9.274;2023-02-12T05:55:45;-1.90;99.90
19755;DHT22;10036;47.812;9.274;2023-02-12T05:58:13;-1.80;99.90
19755;DHT22;10036;47.812;9.274;2023-02-12T06:00:40;-1.90;99.90
19755;DHT22;10036;47.812;9.274;2023-02-12T06:03:07;-1.90;99.90
19755;DHT22;10036;47.812;9.274;2023-02-12T06:05:34;-1.90;99.90
19755;DHT22;10036;47.812;9.274;2023-02-12T06:08:01;-1.90;99.90
19755;DHT22;10036;47.812;9.274;2023-02-12T06:10:28;-1.80;99.90
19755;DHT22;10036;47.812;9.274;2023-02-12T06:12:55;-1.80;99.90
19755;DHT22;10036;47.812;9.274;2023-02-12T06:15:23;-1.80;99.90
19755;DHT22;10036;47.812;9.274;2023-02-12T06:17:50;-1.80;99.90
19755;DHT22;10036;47.812;9.274;2023-02-12T06:20:16;-1.80;99.90
19755;DHT22;10036;47.812;9.274;2023-02-12T06:22:43;-1.80;99.90
19755;DHT22;10036;47.812;9.274;2023-02-12T06:25:10;-1.70;99.90
19755;DHT22;10036;47.812;9.274;2023-02-12T06:27:37;-1.70;99.90
19755;DHT22;10036;47.812;9.274;2023-02-12T06:30:05;-1.70;99.90
19755;DHT22;10036;47.812;9.274;2023-02-12T06:32:33;-1.80;99.90
19755;DHT22;10036;47.812;9.274;2023-02-12T06:35:00;-1.70;99.90
19755;DHT22;10036;47.812;9.274;2023-02-12T06:37:27;-1.60;99.90
19755;DHT22;10036;47.812;9.274;2023-02-12T06:39:53;-1.60;99.90
19755;DHT22;10036;47.812;9.274;2023-02-12T06:42:20;-1.60;99.90
19755;DHT22;10036;47.812;9.274;2023-02-12T06:44:47;-1.50;99.90
19755;DHT22;10036;47.812;9.274;2023-02-12T06:47:14;-1.50;99.90
19755;DHT22;10036;47.812;9.274;2023-02-12T06:49:42;-1.40;99.90
19755;DHT22;10036;47.812;9.274;2023-02-12T06:52:09;-1.50;99.90
19755;DHT22;10036;47.812;9.274;2023-02-12T06:54:36;-1.50;99.90
19755;DHT22;10036;47.812;9.274;2023-02-12T06:57:03;-1.50;99.90
19755;DHT22;10036;47.812;9.274;2023-02-12T06:59:30;-1.50;99.90
19755;DHT22;10036;47.812;9.274;2023-02-12T07:01:57;-1.50;99.90
19755;DHT22;10036;47.812;9.274;2023-02-12T07:04:24;-1.40;99.90
19755;DHT22;10036;47.812;9.274;2023-02-12T07:06:52;-1.40;99.90
19755;DHT22;10036;47.812;9.274;2023-02-12T07:09:19;-1.30;99.90
19755;DHT22;10036;47.812;9.274;2023-02-12T07:11:46;-1.30;99.90
19755;DHT22;10036;47.812;9.274;2023-02-12T07:14:14;-1.30;99.90
19755;DHT22;10036;47.812;9.274;2023-02-12T07:16:41;-1.20;99.90
19755;DHT22;10036;47.812;9.274;2023-02-12T07:19:10;-1.20;99.90
19755;DHT22;10036;47.812;9.274;2023-02-12T07:21:38;-1.10;99.90
19755;DHT22;10036;47.812;9.274;2023-02-12T07:24:08;-1.10;99.90
19755;DHT22;10036;47.812;9.274;2023-02-12T07:26:36;-0.90;99.90
19755;DHT22;10036;47.812;9.274;2023-02-12T07:29:03;-0.70;99.90
19755;DHT22;10036;47.812;9.274;2023-02-12T07:31:30;-0.50;99.90
19755;DHT22;10036;47.812;9.274;2023-02-12T07:33:58;-0.40;99.90
19755;DHT22;10036;47.812;9.274;2023-02-12T07:36:29;-0.20;99.90
19755;DHT22;10036;47.812;9.274;2023-02-12T07:38:57;0.10;99.90
19755;DHT22;10036;47.812;9.274;2023-02-12T07:41:27;0.20;99.90
19755;DHT22;10036;47.812;9.274;2023-02-12T07:43:55;0.20;99.90
19755;DHT22;10036;47.812;9.274;2023-02-12T07:46:24;0.20;99.90
19755;DHT22;10036;47.812;9.274;2023-02-12T07:48:54;0.10;99.90
19755;DHT22;10036;47.812;9.274;2023-02-12T07:51:22;0.30;99.90
19755;DHT22;10036;47.812;9.274;2023-02-12T07:53:49;0.50;99.90
19755;DHT22;10036;47.812;9.274;2023-02-12T07:56:20;0.70;99.90
19755;DHT22;10036;47.812;9.274;2023-02-12T07:58:51;1.00;99.90
19755;DHT22;10036;47.812;9.274;2023-02-12T08:01:20;1.40;99.90
19755;DHT22;10036;47.812;9.274;2023-02-12T08:03:48;1.60;99.90
19755;DHT22;10036;47.812;9.274;2023-02-12T08:06:16;1.70;99.90
19755;DHT22;10036;47.812;9.274;2023-02-12T08:08:43;1.80;99.90
19755;DHT22;10036;47.812;9.274;2023-02-12T08:11:12;1.90;99.90
19755;DHT22;10036;47.812;9.274;2023-02-12T08:13:39;2.10;99.90
19755;DHT22;10036;47.812;9.274;2023-02-12T08:16:09;2.30;99.90
19755;DHT22;10036;47.812;9.274;2023-02-12T08:18:36;2.50;99.90
19755;DHT22;10036;47.812;9.274;2023-02-12T08:21:04;2.70;99.90
19755;DHT22;10036;47.812;9.274;2023-02-12T08:23:31;2.90;99.90
19755;DHT22;10036;47.812;9.274;2023-02-12T08:26:10;3.20;99.90
19755;DHT22;10036;47.812;9.274;2023-02-12T08:28:39;3.30;99.90
19755;DHT22;10036;47.812;9.274;2023-02-12T08:31:09;3.40;99.90
19755;DHT22;10036;47.812;9.274;2023-02-12T08:33:37;3.50;99.90
19755;DHT22;10036;47.812;9.274;2023-02-12T08:36:06;3.60;99.90
19755;DHT22;10036;47.812;9.274;2023-02-12T08:38:34;3.70;99.90
19755;DHT22;10036;47.812;9.274;2023-02-12T08:41:02;3.80;99.90
19755;DHT22;10036;47.812;9.274;2023-02-12T08:43:29;3.90;99.90
19755;DHT22;10036;47.812;9.274;2023-02-12T08:46:01;4.00;99.90
19755;DHT22;10036;47.812;9.274;2023-02-12T08:48:29;4.00;99.90
19755;DHT22;10036;47.812;9.274;2023-02-12T08:51:05;4.10;99.90
19755;DHT22;10036;47.812;9.274;2023-02-12T08:53:33;4.40;99.90
19755;DHT22;10036;47.812;9.274;2023-02-12T08:56:00;4.40;99.90
19755;DHT22;10036;47.812;9.274;2023-02-12T08:58:27;4.50;99.90
19755;DHT22;10036;47.812;9.274;2023-02-12T09:00:54;4.40;99.90
19755;DHT22;10036;47.812;9.274;2023-02-12T09:03:21;4.40;99.90
19755;DHT22;10036;47.812;9.274;2023-02-12T09:05:50;4.30;99.90
19755;DHT22;10036;47.812;9.274;2023-02-12T09:08:16;4.30;99.90
19755;DHT22;10036;47.812;9.274;2023-02-12T09:10:44;4.40;99.90
19755;DHT22;10036;47.812;9.274;2023-02-12T09:13:12;4.50;99.90
19755;DHT22;10036;47.812;9.274;2023-02-12T09:15:40;4.50;99.90
19755;DHT22;10036;47.812;9.274;2023-02-12T09:18:07;4.40;99.90
19755;DHT22;10036;47.812;9.274;2023-02-12T09:20:36;4.50;99.90
19755;DHT22;10036;47.812;9.274;2023-02-12T09:23:05;4.50;99.90
19755;DHT22;10036;47.812;9.274;2023-02-12T09:25:32;4.60;99.90
19755;DHT22;10036;47.812;9.274;2023-02-12T09:27:59;4.70;99.90
19755;DHT22;10036;47.812;9.274;2023-02-12T09:30:26;4.90;99.90
19755;DHT22;10036;47.812;9.274;2023-02-12T09:32:54;5.00;99.90
19755;DHT22;10036;47.812;9.274;2023-02-12T09:35:21;5.00;99.90
19755;DHT22;10036;47.812;9.274;2023-02-12T09:37:48;5.10;99.90
19755;DHT22;10036;47.812;9.274;2023-02-12T09:40:19;5.00;99.90
19755;DHT22;10036;47.812;9.274;2023-02-12T09:43:08;5.10;99.90
19755;DHT22;10036;47.812;9.274;2023-02-12T09:45:39;5.10;99.90
19755;DHT22;10036;47.812;9.274;2023-02-12T09:48:26;5.10;99.90
19755;DHT22;10036;47.812;9.274;2023-02-12T09:50:59;5.10;99.90
19755;DHT22;10036;47.812;9.274;2023-02-12T09:53:29;5.10;99.90
19755;DHT22;10036;47.812;9.274;2023-02-12T09:55:58;5.00;99.90
19755;DHT22;10036;47.812;9.274;2023-02-12T09:58:30;5.20;99.90
19755;DHT22;10036;47.812;9.274;2023-02-12T10:01:00;5.20;99.90
19755;DHT22;10036;47.812;9.274;2023-02-12T10:03:30;5.30;99.90
19755;DHT22;10036;47.812;9.274;2023-02-12T10:06:00;5.30;99.90
19755;DHT22;10036;47.812;9.274;2023-02-12T10:08:45;5.30;99.90
19755;DHT22;10036;47.812;9.274;2023-02-12T10:11:28;5.30;99.90
19755;DHT22;10036;47.812;9.274;2023-02-12T10:14:08;5.30;99.90
19755;DHT22;10036;47.812;9.274;2023-02-12T10:16:44;5.40;99.90
19755;DHT22;10036;47.812;9.274;2023-02-12T10:19:24;5.50;99.90
19755;DHT22;10036;47.812;9.274;2023-02-12T10:22:01;5.60;99.90
19755;DHT22;10036;47.812;9.274;2023-02-12T10:24:53;5.60;99.90
19755;DHT22;10036;47.812;9.274;2023-02-12T10:27:36;5.60;99.90
19755;DHT22;10036;47.812;9.274;2023-02-12T10:30:13;5.70;99.90
19755;DHT22;10036;47.812;9.274;2023-02-12T10:32:43;5.70;99.90
19755;DHT22;10036;47.812;9.274;2023-02-12T10:35:12;5.70;99.90
19755;DHT22;10036;47.812;9.274;2023-02-12T10:37:42;5.80;99.90
19755;DHT22;10036;47.812;9.274;2023-02-12T10:40:16;5.90;99.90
19755;DHT22;10036;47.812;9.274;2023-02-12T10:42:47;6.00;99.90
19755;DHT22;10036;47.812;9.274;2023-02-12T10:45:16;6.10;99.90
19755;DHT22;10036;47.812;9.274;2023-02-12T10:47:43;6.20;99.90
19755;DHT22;10036;47.812;9.274;2023-02-12T10:50:21;6.20;99.90
19755;DHT22;10036;47.812;9.274;2023-02-12T10:52:55;6.20;99.90
19755;DHT22;10036;47.812;9.274;2023-02-12T10:55:27;6.20;99.90
19755;DHT22;10036;47.812;9.274;2023-02-12T10:57:56;6.30;99.90
19755;DHT22;10036;47.812;9.274;2023-02-12T11:00:26;6.50;99.90
19755;DHT22;10036;47.812;9.274;2023-02-12T11:03:05;6.60;99.90
19755;DHT22;10036;47.812;9.274;2023-02-12T11:05:34;6.60;99.90
19755;DHT22;10036;47.812;9.274;2023-02-12T11:08:01;6.60;99.90
19755;DHT22;10036;47.812;9.274;2023-02-12T11:10:29;6.50;99.90
19755;DHT22;10036;47.812;9.274;2023-02-12T11:12:59;6.40;99.90
19755;DHT22;10036;47.812;9.274;2023-02-12T11:15:29;6.40;99.90
19755;DHT22;10036;47.812;9.274;2023-02-12T11:18:02;6.30;99.90
19755;DHT22;10036;47.812;9.274;2023-02-12T11:20:32;6.40;99.90
19755;DHT22;10036;47.812;9.274;2023-02-12T11:23:01;6.50;99.90
19755;DHT22;10036;47.812;9.274;2023-02-12T11:25:32;6.40;99.90
19755;DHT22;10036;47.812;9.274;2023-02-12T11:28:09;6.40;99.90
19755;DHT22;10036;47.812;9.274;2023-02-12T11:30:48;6.50;99.90
19755;DHT22;10036;47.812;9.274;2023-02-12T11:33:20;6.60;99.90
19755;DHT22;10036;47.812;9.274;2023-02-12T11:35:51;6.50;99.90
19755;DHT22;10036;47.812;9.274;2023-02-12T11:38:26;6.60;99.90
19755;DHT22;10036;47.812;9.274;2023-02-12T11:40:56;6.70;99.90
19755;DHT22;10036;47.812;9.274;2023-02-12T11:43:27;6.80;99.90
19755;DHT22;10036;47.812;9.274;2023-02-12T11:45:56;6.90;99.90
19755;DHT22;10036;47.812;9.274;2023-02-12T11:48:25;6.90;99.90
19755;DHT22;10036;47.812;9.274;2023-02-12T11:50:55;7.00;99.90
19755;DHT22;10036;47.812;9.274;2023-02-12T11:53:26;7.20;99.90
19755;DHT22;10036;47.812;9.274;2023-02-12T11:55:57;7.20;99.90
19755;DHT22;10036;47.812;9.274;2023-02-12T11:58:27;7.30;99.90
19755;DHT22;10036;47.812;9.274;2023-02-12T12:01:00;7.50;99.90
19755;DHT22;10036;47.812;9.274;2023-02-12T12:03:33;7.70;99.90
19755;DHT22;10036;47.812;9.274;2023-02-12T12:06:05;7.90;99.90
19755;DHT22;10036;47.812;9.274;2023-02-12T12:08:38;7.90;99.90
19755;DHT22;10036;47.812;9.274;2023-02-12T12:11:10;8.00;99.90
19755;DHT22;10036;47.812;9.274;2023-02-12T12:13:45;8.10;99.90
19755;DHT22;10036;47.812;9.274;2023-02-12T12:16:18;8.20;99.90
19755;DHT22;10036;47.812;9.274;2023-02-12T12:19:05;8.30;99.90
19755;DHT22;10036;47.812;9.274;2023-02-12T12:21:57;8.40;99.90
19755;DHT22;10036;47.812;9.274;2023-02-12T12:24:35;8.40;99.90
19755;DHT22;10036;47.812;9.274;2023-02-12T12:27:11;8.40;99.90
19755;DHT22;10036;47.812;9.274;2023-02-12T12:30:02;8.50;99.90
19755;DHT22;10036;47.812;9.274;2023-02-12T12:32:33;8.60;99.90
19755;DHT22;10036;47.812;9.274;2023-02-12T12:35:02;8.70;99.90
19755;DHT22;10036;47.812;9.274;2023-02-12T12:37:34;8.80;99.90
19755;DHT22;10036;47.812;9.274;2023-02-12T12:40:17;8.80;99.90
19755;DHT22;10036;47.812;9.274;2023-02-12T12:43:13;8.80;99.90
19755;DHT22;10036;47.812;9.274;2023-02-12T12:46:14;8.90;99.90
19755;DHT22;10036;47.812;9.274;2023-02-12T12:49:11;9.00;99.90
19755;DHT22;10036;47.812;9.274;2023-02-12T12:51:57;9.10;99.90
19755;DHT22;10036;47.812;9.274;2023-02-12T12:54:35;9.30;99.90
19755;DHT22;10036;47.812;9.274;2023-02-12T12:57:10;9.40;99.90
19755;DHT22;10036;47.812;9.274;2023-02-12T13:00:06;9.40;99.90
19755;DHT22;10036;47.812;9.274;2023-02-12T13:09:13;9.50;99.90
19755;DHT22;10036;47.812;9.274;2023-02-12T13:11:55;9.50;99.90
19755;DHT22;10036;47.812;9.274;2023-02-12T13:14:34;9.60;99.90
19755;DHT22;10036;47.812;9.274;2023-02-12T13:17:08;9.60;99.90
19755;DHT22;10036;47.812;9.274;2023-02-12T13:19:46;9.60;99.90
19755;DHT22;10036;47.812;9.274;2023-02-12T13:22:18;9.70;99.90
19755;DHT22;10036;47.812;9.274;2023-02-12T13:24:52;9.60;99.90
19755;DHT22;10036;47.812;9.274;2023-02-12T13:27:23;9.60;99.90
19755;DHT22;10036;47.812;9.274;2023-02-12T13:29:56;9.60;99.90
19755;DHT22;10036;47.812;9.274;2023-02-12T13:32:27;9.70;99.90
19755;DHT22;10036;47.812;9.274;2023-02-12T13:34:56;9.70;99.90
19755;DHT22;10036;47.812;9.274;2023-02-12T13:37:31;9.70;99.90
19755;DHT22;10036;47.812;9.274;2023-02-12T13:40:03;9.60;99.90
19755;DHT22;10036;47.812;9.274;2023-02-12T13:42:43;9.70;99.90
19755;DHT22;10036;47.812;9.274;2023-02-12T13:45:20;9.90;99.90
19755;DHT22;10036;47.812;9.274;2023-02-12T13:47:58;9.80;99.90
19755;DHT22;10036;47.812;9.274;2023-02-12T13:50:36;9.90;99.90
19755;DHT22;10036;47.812;9.274;2023-02-12T13:53:14;9.80;99.90
19755;DHT22;10036;47.812;9.274;2023-02-12T13:55:58;9.80;99.90
19755;DHT22;10036;47.812;9.274;2023-02-12T13:58:47;9.90;99.90
19755;DHT22;10036;47.812;9.274;2023-02-12T14:01:39;9.90;99.90
19755;DHT22;10036;47.812;9.274;2023-02-12T14:04:25;9.90;99.90
19755;DHT22;10036;47.812;9.274;2023-02-12T14:06:54;9.90;99.90
19755;DHT22;10036;47.812;9.274;2023-02-12T14:09:28;9.90;99.90
19755;DHT22;10036;47.812;9.274;2023-02-12T14:11:59;10.00;99.90
19755;DHT22;10036;47.812;9.274;2023-02-12T14:14:29;10.00;99.90
19755;DHT22;10036;47.812;9.274;2023-02-12T14:20:11;10.10;99.90
19755;DHT22;10036;47.812;9.274;2023-02-12T14:23:23;10.10;99.90
19755;DHT22;10036;47.812;9.274;2023-02-12T14:25:59;10.10;99.90
19755;DHT22;10036;47.812;9.274;2023-02-12T14:28:33;10.30;99.90
19755;DHT22;10036;47.812;9.274;2023-02-12T14:31:37;10.30;99.90
19755;DHT22;10036;47.812;9.274;2023-02-12T14:34:35;10.30;99.90
19755;DHT22;10036;47.812;9.274;2023-02-12T14:37:14;10.20;99.90
19755;DHT22;10036;47.812;9.274;2023-02-12T14:39:42;10.10;99.90
19755;DHT22;10036;47.812;9.274;2023-02-12T14:42:41;10.20;99.90
19755;DHT22;10036;47.812;9.274;2023-02-12T14:45:27;10.10;99.90
19755;DHT22;10036;47.812;9.274;2023-02-12T14:47:54;10.20;99.90
19755;DHT22;10036;47.812;9.274;2023-02-12T14:50:43;10.20;99.90
19755;DHT22;10036;47.812;9.274;2023-02-12T14:53:35;10.10;99.90
19755;DHT22;10036;47.812;9.274;2023-02-12T14:56:04;10.00;99.90
19755;DHT22;10036;47.812;9.274;2023-02-12T14:58:34;9.90;99.90
19755;DHT22;10036;47.812;9.274;2023-02-12T15:01:04;9.90;99.90
19755;DHT22;10036;47.812;9.274;2023-02-12T15:03:37;10.00;99.90
19755;DHT22;10036;47.812;9.274;2023-02-12T15:06:12;10.00;99.90
19755;DHT22;10036;47.812;9.274;2023-02-12T15:08:45;10.00;99.90
19755;DHT22;10036;47.812;9.274;2023-02-12T15:11:23;10.00;99.90
19755;DHT22;10036;47.812;9.274;2023-02-12T15:13:56;9.90;99.90
19755;DHT22;10036;47.812;9.274;2023-02-12T15:16:37;9.80;99.90
19755;DHT22;10036;47.812;9.274;2023-02-12T15:19:16;9.90;99.90
19755;DHT22;10036;47.812;9.274;2023-02-12T15:21:44;9.80;99.90
19755;DHT22;10036;47.812;9.274;2023-02-12T15:24:13;9.70;99.90
19755;DHT22;10036;47.812;9.274;2023-02-12T15:26:41;9.70;99.90
19755;DHT22;10036;47.812;9.274;2023-02-12T15:29:17;9.80;99.90
19755;DHT22;10036;47.812;9.274;2023-02-12T15:31:50;9.70;99.90
19755;DHT22;10036;47.812;9.274;2023-02-12T15:34:19;9.40;99.90
19755;DHT22;10036;47.812;9.274;2023-02-12T15:36:48;9.30;99.90
19755;DHT22;10036;47.812;9.274;2023-02-12T15:39:18;9.30;99.90
19755;DHT22;10036;47.812;9.274;2023-02-12T15:41:46;9.30;99.90
19755;DHT22;10036;47.812;9.274;2023-02-12T15:44:25;9.20;99.90
19755;DHT22;10036;47.812;9.274;2023-02-12T15:46:56;8.90;99.90
19755;DHT22;10036;47.812;9.274;2023-02-12T15:49:28;8.80;99.90
19755;DHT22;10036;47.812;9.274;2023-02-12T15:51:55;8.90;99.90
19755;DHT22;10036;47.812;9.274;2023-02-12T15:54:24;8.80;99.90
19755;DHT22;10036;47.812;9.274;2023-02-12T15:56:52;8.70;99.90
19755;DHT22;10036;47.812;9.274;2023-02-12T15:59:22;8.60;99.90
19755;DHT22;10036;47.812;9.274;2023-02-12T16:01:55;8.60;99.90
19755;DHT22;10036;47.812;9.274;2023-02-12T16:04:26;8.50;99.90
19755;DHT22;10036;47.812;9.274;2023-02-12T16:06:54;8.20;99.90
19755;DHT22;10036;47.812;9.274;2023-02-12T16:09:26;8.20;99.90
19755;DHT22;10036;47.812;9.274;2023-02-12T16:11:54;8.10;99.90
19755;DHT22;10036;47.812;9.274;2023-02-12T16:14:23;8.00;99.90
19755;DHT22;10036;47.812;9.274;2023-02-12T16:16:52;7.80;99.90